Time;durP1;ratioP1;P1;durP2;ratioP2;P2;SDS_P1;SDS_P2;PMS_P1;PMS_P2;Temp;Humidity;BMP_temperature;BMP_pressure;BME280_temperature;BME280_humidity;BME280_pressure;Samples;Min_cycle;Max_cycle;Signal;HPM_P1;HPM_P2
2022/01/11 00:01:00;;;;;;;;;31.00;23.50;;;;;5.46;71.92;102324.47;5058952;28;45629;-65
2022/01/11 00:03:26;;;;;;;;;33.00;28.75;;;;;5.48;71.40;102314.81;5040366;28;46543;-68
2022/01/11 00:08:28;;;;;;;;;27.00;23.25;;;;;5.45;71.80;102308.66;5058683;28;45356;-69
2022/01/11 00:11:02;;;;;;;;;30.50;21.25;;;;;5.42;71.68;102308.69;5057611;28;45464;-65
2022/01/11 00:13:28;;;;;;;;;24.00;21.75;;;;;5.39;72.06;102303.44;5058196;28;45520;-68
2022/01/11 00:15:54;;;;;;;;;30.50;27.50;;;;;5.43;72.05;102320.97;5058062;28;45356;-66
2022/01/11 00:18:19;;;;;;;;;28.75;25.00;;;;;5.43;71.68;102318.34;5058166;28;45398;-69
2022/01/11 00:20:44;;;;;;;;;44.50;32.50;;;;;5.46;71.89;102326.22;5039994;28;45507;-66
2022/01/11 00:25:40;;;;;;;;;31.50;22.25;;;;;5.49;71.70;102328.88;5057592;28;45312;-67
2022/01/11 00:28:10;;;;;;;;;27.00;22.00;;;;;5.47;71.92;102330.63;5058082;28;45338;-67
2022/01/11 00:30:39;;;;;;;;;32.00;23.75;;;;;5.42;71.61;102313.94;5058525;28;45456;-69
2022/01/11 00:33:10;;;;;;;;;28.00;23.25;;;;;5.37;71.44;102328.94;5057310;28;45616;-69
2022/01/11 00:35:44;;;;;;;;;31.50;25.00;;;;;5.33;72.54;102325.44;5057448;28;45238;-69
2022/01/11 00:38:15;;;;;;;;;27.25;19.75;;;;;5.27;72.42;102321.09;5056716;28;45320;-67
2022/01/11 00:40:48;;;;;;;;;18.50;18.50;;;;;5.25;72.62;102324.63;5058323;28;45426;-67
2022/01/11 00:43:20;;;;;;;;;28.25;19.75;;;;;5.19;72.51;102316.75;5038515;28;47104;-66
2022/01/11 00:45:46;;;;;;;;;21.50;18.75;;;;;5.16;72.36;102312.38;5038952;28;45530;-68
2022/01/11 00:48:12;;;;;;;;;32.50;23.25;;;;;5.25;71.85;102322.88;5057243;28;45545;-66
2022/01/11 00:50:38;;;;;;;;;23.25;16.25;;;;;5.25;71.94;102327.28;5044892;28;45441;-66
2022/01/11 00:53:05;;;;;;;;;15.50;14.25;;;;;5.29;72.26;102329.00;5057480;28;45378;-70
2022/01/11 00:55:31;;;;;;;;;18.25;17.50;;;;;5.30;72.50;102323.69;5057259;28;45456;-68
2022/01/11 00:57:57;;;;;;;;;31.25;25.00;;;;;5.22;72.09;102307.06;5024052;28;45336;-61
2022/01/11 01:00:22;;;;;;;;;31.00;22.00;;;;;5.26;71.74;102327.25;5031784;28;45413;-68
2022/01/11 01:02:48;;;;;;;;;32.25;22.25;;;;;5.20;72.02;102319.38;5035595;28;45371;-66
2022/01/11 01:05:17;;;;;;;;;29.25;24.50;;;;;5.13;71.57;102309.75;5029356;28;45415;-71
2022/01/11 01:07:43;;;;;;;;;29.50;21.00;;;;;5.16;72.12;102328.19;5057831;28;45332;-66
2022/01/11 01:10:19;;;;;;;;;23.50;22.50;;;;;5.18;71.80;102334.31;5038788;28;45240;-66
2022/01/11 01:12:45;;;;;;;;;28.50;22.25;;;;;5.19;72.82;102336.06;5036848;28;46309;-66
2022/01/11 01:15:10;;;;;;;;;28.25;23.75;;;;;5.20;73.27;102337.81;5046987;28;45441;-65
2022/01/11 01:17:36;;;;;;;;;26.25;23.75;;;;;5.22;72.37;102349.28;5057101;28;45385;-62
2022/01/11 01:20:03;;;;;;;;;29.75;25.25;;;;;5.23;72.94;102352.78;5057108;28;45558;-68
2022/01/11 01:22:29;;;;;;;;;32.50;27.50;;;;;5.22;71.97;102346.63;5056875;28;46602;-63
2022/01/11 01:24:54;;;;;;;;;32.25;21.25;;;;;5.27;71.52;102351.88;5056719;28;45489;-64
2022/01/11 01:27:20;;;;;;;;;23.50;17.50;;;;;5.20;72.34;102340.47;5057106;28;45417;-67
2022/01/11 01:29:45;;;;;;;;;26.75;22.50;;;;;5.21;71.99;102334.34;5057495;28;45629;-68
2022/01/11 01:32:11;;;;;;;;;30.50;25.50;;;;;5.23;72.82;102336.97;5056523;28;45364;-65
2022/01/11 01:34:37;;;;;;;;;29.75;24.25;;;;;5.20;72.50;102340.47;5038472;28;45342;-63
2022/01/11 01:37:03;;;;;;;;;24.75;22.00;;;;;5.21;72.19;102339.59;5057475;28;45289;-66
2022/01/11 01:39:28;;;;;;;;;27.00;24.75;;;;;5.16;72.50;102343.13;5058315;28;45153;-66
2022/01/11 01:41:54;;;;;;;;;34.75;31.25;;;;;5.11;71.83;102353.72;5057997;28;45375;-64
2022/01/11 01:44:21;;;;;;;;;33.25;28.50;;;;;5.14;72.31;102356.34;5057033;28;45712;-63
2022/01/11 01:46:47;;;;;;;;;29.25;21.25;;;;;5.15;72.44;102351.94;5055770;28;45363;-62
2022/01/11 01:49:17;;;;;;;;;38.25;33.50;;;;;5.13;72.62;102365.13;5056691;28;45261;-66
2022/01/11 01:51:44;;;;;;;;;33.50;25.75;;;;;5.14;73.06;102355.47;5056357;28;47270;-66
2022/01/11 01:54:11;;;;;;;;;46.00;34.75;;;;;5.19;72.63;102351.91;5056696;28;45388;-66
2022/01/11 01:56:37;;;;;;;;;49.25;32.25;;;;;5.21;73.35;102355.44;5056412;28;45492;-67
2022/01/11 01:59:03;;;;;;;;;36.25;34.75;;;;;5.17;73.15;102351.03;5057210;28;45660;-65
2022/01/11 02:01:29;;;;;;;;;36.00;29.25;;;;;5.24;73.16;102363.31;5037388;28;47801;-63
2022/01/11 02:03:54;;;;;;;;;49.00;34.75;;;;;5.21;72.88;102366.00;5056274;28;45440;-66
2022/01/11 02:06:20;;;;;;;;;39.50;31.50;;;;;5.20;73.08;102371.25;5055932;28;45513;-66
2022/01/11 02:08:48;;;;;;;;;49.75;32.25;;;;;5.22;72.60;102378.28;5056267;28;45505;-66
2022/01/11 02:11:15;;;;;;;;;49.00;32.25;;;;;5.23;72.34;102376.53;5054313;28;46447;-66
2022/01/11 02:13:41;;;;;;;;;35.75;31.75;;;;;5.18;72.76;102379.16;5048490;28;45534;-63
2022/01/11 02:16:07;;;;;;;;;38.25;31.75;;;;;5.22;72.43;102367.75;5055889;28;45534;-65
2022/01/11 02:18:33;;;;;;;;;30.75;25.75;;;;;5.22;73.03;102375.66;5056364;28;45614;-65
2022/01/11 02:21:00;;;;;;;;;38.00;31.25;;;;;5.18;72.35;102362.47;5056320;28;46337;-65
2022/01/11 02:23:27;;;;;;;;;33.00;31.00;;;;;5.15;71.88;102373.91;5055922;28;45251;-66
2022/01/11 02:25:53;;;;;;;;;38.75;34.75;;;;;5.15;72.45;102368.63;5055512;28;45410;-67
2022/01/11 02:28:21;;;;;;;;;28.00;25.75;;;;;5.08;72.26;102372.22;5035141;28;45478;-69
2022/01/11 02:30:47;;;;;;;;;32.50;30.00;;;;;5.10;72.28;102378.34;5036675;28;46078;-66
2022/01/11 02:33:31;;;;;;;;;37.75;32.25;;;;;5.09;72.63;102381.00;5039781;28;45356;-64
2022/01/11 02:35:56;;;;;;;;;27.50;22.50;;;;;5.06;71.84;102379.22;5055802;28;45462;-62
2022/01/11 02:38:22;;;;;;;;;42.50;30.25;;;;;5.05;72.93;102382.75;5056955;28;45557;-64
2022/01/11 02:40:47;;;;;;;;;33.50;28.25;;;;;4.97;72.31;102385.44;5055586;28;46171;-65
2022/01/11 02:43:13;;;;;;;;;35.75;30.50;;;;;5.01;72.05;102381.03;5052436;28;45572;-63
2022/01/11 02:45:38;;;;;;;;;28.00;24.50;;;;;5.00;72.37;102387.19;5049502;28;45570;-67
2022/01/11 02:48:04;;;;;;;;;32.25;30.25;;;;;4.97;72.92;102384.56;5050736;28;45435;-67
2022/01/11 02:50:30;;;;;;;;;30.00;21.25;;;;;4.99;72.17;102388.06;5053769;28;45482;-65
2022/01/11 02:52:55;;;;;;;;;28.00;24.75;;;;;5.01;72.64;102375.75;5054012;28;45398;-68
2022/01/11 02:55:20;;;;;;;;;34.25;24.50;;;;;5.03;72.68;102384.53;5051328;28;45388;-67
2022/01/11 02:57:46;;;;;;;;;32.00;21.75;;;;;4.98;72.40;102371.38;5046637;28;45685;-68
2022/01/11 03:00:14;;;;;;;;;28.25;25.00;;;;;5.05;72.34;102382.75;5019013;28;46229;-69
2022/01/11 03:02:40;;;;;;;;;30.00;22.25;;;;;5.09;71.67;102384.50;5054087;28;45212;-67
2022/01/11 03:05:08;;;;;;;;;31.25;26.50;;;;;5.11;72.03;102385.38;5055000;28;45513;-62
2022/01/11 03:07:33;;;;;;;;;30.00;24.75;;;;;5.11;71.73;102393.28;5056425;28;45375;-63
2022/01/11 03:10:12;;;;;;;;;34.50;28.50;;;;;5.13;72.03;102391.50;5055246;28;46286;-63
2022/01/11 03:12:40;;;;;;;;;28.00;27.50;;;;;5.07;71.28;102390.66;5055468;28;45449;-62
2022/01/11 03:15:06;;;;;;;;;29.50;26.00;;;;;5.05;71.13;102398.56;5055928;28;45495;-64
2022/01/11 03:17:31;;;;;;;;;37.00;30.25;;;;;5.04;71.23;102402.09;5054989;28;45470;-65
2022/01/11 03:19:56;;;;;;;;;9.00;9.00;;;;;5.11;70.95;102392.41;5037402;28;47220;-68
2022/01/11 03:22:22;;;;;;;;;30.25;24.00;;;;;5.08;71.51;102395.03;5055454;28;45365;-63
2022/01/11 03:24:47;;;;;;;;;18.00;18.00;;;;;5.09;71.19;102388.91;5055531;28;45367;-67
2022/01/11 03:27:13;;;;;;;;;29.25;23.50;;;;;5.04;71.09;102389.78;5055067;28;45545;-69
2022/01/11 03:29:39;;;;;;;;;29.50;23.25;;;;;5.01;71.30;102394.19;5056125;28;45363;-63
2022/01/11 03:32:06;;;;;;;;;24.50;19.75;;;;;5.04;71.31;102408.25;5055777;28;45594;-65
2022/01/11 03:34:31;;;;;;;;;28.25;27.25;;;;;5.09;70.99;102416.16;5037149;28;45324;-64
2022/01/11 03:36:57;;;;;;;;;26.75;26.75;;;;;5.07;71.17;102412.63;5054429;28;45541;-63
2022/01/11 03:39:24;;;;;;;;;29.50;24.25;;;;;5.07;71.18;102411.75;5046676;28;46165;-64
2022/01/11 03:41:49;;;;;;;;;31.50;24.50;;;;;4.94;72.20;102400.38;5058453;28;45466;-64
2022/01/11 03:44:15;;;;;;;;;23.50;21.00;;;;;4.89;71.04;102408.31;5071947;28;45699;-71
2022/01/11 03:46:40;;;;;;;;;30.50;26.00;;;;;4.88;71.28;102398.66;5054636;28;45694;-61
2022/01/11 03:49:05;;;;;;;;;29.00;26.50;;;;;4.82;71.06;102411.88;5055223;28;45400;-62
2022/01/11 03:51:35;;;;;;;;;30.25;22.25;;;;;4.77;71.17;102418.00;5054524;28;45386;-63
2022/01/11 03:54:08;;;;;;;;;29.75;24.00;;;;;4.78;70.86;102438.22;5055026;28;45399;-67
2022/01/11 03:56:34;;;;;;;;;32.25;26.75;;;;;4.76;70.80;102443.50;5054897;28;45640;-66
2022/01/11 03:59:01;;;;;;;;;27.50;24.75;;;;;4.71;71.89;102438.25;5054719;28;45446;-68
2022/01/11 04:01:27;;;;;;;;;24.75;23.25;;;;;4.68;71.28;102425.06;5054483;28;45438;-64
2022/01/11 04:03:52;;;;;;;;;28.25;22.00;;;;;4.70;71.45;102412.78;5054634;28;45272;-64
2022/01/11 04:06:18;;;;;;;;;34.75;24.25;;;;;4.66;71.85;102407.50;5054971;28;45707;-62
2022/01/11 04:08:45;;;;;;;;;22.50;17.75;;;;;4.62;72.25;102404.00;5054323;28;46230;-65
2022/01/11 04:11:11;;;;;;;;;24.25;23.00;;;;;4.60;71.81;102411.03;5036350;28;45393;-62
2022/01/11 04:13:38;;;;;;;;;25.75;24.50;;;;;4.58;71.95;102425.97;5056648;28;45419;-66
2022/01/11 04:16:04;;;;;;;;;26.75;20.75;;;;;4.53;72.38;102419.81;5057093;28;45522;-66
2022/01/11 04:18:30;;;;;;;;;24.50;19.50;;;;;4.48;71.45;102405.78;5059031;28;45464;-66
2022/01/11 04:20:55;;;;;;;;;24.25;22.00;;;;;4.56;71.99;102414.56;5040228;28;45447;-69
2022/01/11 04:23:20;;;;;;;;;26.50;20.75;;;;;4.55;71.75;102412.78;5058184;28;45446;-67
2022/01/11 04:25:46;;;;;;;;;29.00;22.75;;;;;4.53;72.36;102414.56;5057507;28;45610;-67
2022/01/11 04:28:11;;;;;;;;;26.00;17.00;;;;;4.49;72.70;102423.34;5040022;28;46664;-62
2022/01/11 04:30:37;;;;;;;;;20.75;18.75;;;;;4.49;71.91;102433.91;5039922;28;45248;-66
2022/01/11 04:33:04;;;;;;;;;24.00;18.00;;;;;4.42;71.71;102422.47;5057880;28;45497;-67
2022/01/11 04:35:30;;;;;;;;;24.00;23.00;;;;;4.48;72.30;102426.88;5058302;28;45528;-65
2022/01/11 04:37:56;;;;;;;;;31.00;27.25;;;;;4.48;72.31;102418.97;5057104;28;45535;-66
2022/01/11 04:40:21;;;;;;;;;21.25;18.00;;;;;4.47;72.41;102424.25;5036112;28;45510;-65
2022/01/11 04:42:47;;;;;;;;;29.00;21.50;;;;;4.43;72.23;102423.38;5019929;28;45428;-68
2022/01/11 04:45:14;;;;;;;;;28.25;20.75;;;;;4.35;72.26;102409.31;5052166;28;45487;-66
2022/01/11 04:47:40;;;;;;;;;22.75;21.00;;;;;4.39;73.05;102432.16;5057620;28;46301;-69
2022/01/11 04:50:08;;;;;;;;;32.25;28.75;;;;;4.31;72.40;102407.59;5057553;28;45302;-67
2022/01/11 04:52:34;;;;;;;;;38.00;29.25;;;;;4.37;72.62;102413.72;5039805;28;45494;-67
2022/01/11 04:54:59;;;;;;;;;29.00;22.50;;;;;4.37;72.54;102439.19;5057324;28;45633;-62
2022/01/11 04:57:25;;;;;;;;;24.00;20.75;;;;;4.33;72.40;102447.97;5056397;28;45329;-61
2022/01/11 04:59:50;;;;;;;;;31.00;24.75;;;;;4.33;72.56;102453.22;5038995;28;45521;-66
2022/01/11 05:02:16;;;;;;;;;23.50;20.75;;;;;4.36;72.98;102447.97;5057499;28;45409;-65
2022/01/11 05:04:41;;;;;;;;;30.50;25.00;;;;;4.42;72.56;102458.47;5040160;28;45460;-66
2022/01/11 05:07:06;;;;;;;;;30.00;25.00;;;;;4.46;72.43;102459.38;5057314;28;46100;-64
2022/01/11 05:09:32;;;;;;;;;30.25;23.75;;;;;4.50;72.07;102446.19;5056155;28;45444;-66
2022/01/11 05:11:57;;;;;;;;;33.00;23.00;;;;;4.54;71.69;102453.19;5035135;28;45445;-70
2022/01/11 05:14:23;;;;;;;;;33.25;26.75;;;;;4.51;72.02;102450.56;5055835;28;45480;-66
2022/01/11 05:16:48;;;;;;;;;32.00;26.50;;;;;4.48;71.17;102442.69;5056544;28;46232;-68
2022/01/11 05:19:14;;;;;;;;;21.75;20.25;;;;;4.40;72.06;102433.91;5057160;28;45423;-66
2022/01/11 05:21:41;;;;;;;;;28.25;24.75;;;;;4.38;71.58;102444.44;5038306;28;45503;-60
2022/01/11 05:24:08;;;;;;;;;30.00;24.50;;;;;4.32;72.30;102444.47;5038660;28;45261;-67
2022/01/11 05:26:34;;;;;;;;;29.50;20.75;;;;;4.32;71.53;102451.47;5038441;28;46205;-67
2022/01/11 05:29:00;;;;;;;;;29.50;27.50;;;;;4.32;71.83;102456.75;5054470;28;45511;-68
2022/01/11 05:31:25;;;;;;;;;33.25;27.25;;;;;4.27;71.27;102456.72;5055806;28;45602;-69
2022/01/11 05:33:51;;;;;;;;;33.00;27.00;;;;;4.25;71.89;102460.25;5057023;28;45372;-70
2022/01/11 05:36:16;;;;;;;;;37.25;30.50;;;;;4.20;71.80;102452.38;5038686;28;46027;-69
2022/01/11 05:38:42;;;;;;;;;38.00;26.00;;;;;4.23;71.50;102464.66;5039066;28;45538;-68
2022/01/11 05:41:08;;;;;;;;;29.50;25.50;;;;;4.22;72.28;102460.25;5038967;28;45310;-68
2022/01/11 05:43:35;;;;;;;;;34.50;28.75;;;;;4.19;71.56;102470.78;5056962;28;45594;-67
2022/01/11 05:46:02;;;;;;;;;32.75;27.00;;;;;4.12;71.44;102477.81;5056803;28;45834;-65
2022/01/11 05:48:27;;;;;;;;;45.25;31.50;;;;;4.03;72.08;102475.16;5056529;28;45205;-64
2022/01/11 05:50:53;;;;;;;;;32.75;28.75;;;;;4.08;71.71;102476.06;5038297;28;45460;-66
2022/01/11 05:53:18;;;;;;;;;33.75;25.50;;;;;4.12;71.55;102476.03;5057208;28;45610;-69
2022/01/11 05:55:44;;;;;;;;;38.00;28.50;;;;;4.09;71.46;102468.16;5056957;28;46111;-67
2022/01/11 05:58:09;;;;;;;;;26.50;23.00;;;;;4.08;71.60;102469.03;5056133;28;45463;-67
2022/01/11 06:00:35;;;;;;;;;33.50;27.00;;;;;4.04;71.63;102469.91;5055129;28;45424;-62
2022/01/11 06:03:01;;;;;;;;;29.50;28.50;;;;;4.07;72.10;102482.19;5058009;28;45420;-66
2022/01/11 06:05:27;;;;;;;;;33.00;23.00;;;;;3.89;71.81;102471.63;5037333;28;47741;-65
2022/01/11 06:07:53;;;;;;;;;27.75;25.25;;;;;3.91;71.80;102497.09;5055165;28;45450;-66
2022/01/11 06:10:19;;;;;;;;;29.00;25.50;;;;;3.90;71.53;102495.31;5048729;28;45904;-67
2022/01/11 06:12:45;;;;;;;;;31.25;27.50;;;;;3.91;71.97;102502.38;5038538;28;45798;-67
2022/01/11 06:15:10;;;;;;;;;32.00;29.75;;;;;3.64;71.28;102470.69;5056212;28;46032;-63
2022/01/11 06:17:35;;;;;;;;;37.25;28.00;;;;;3.76;71.82;102497.03;5056307;28;45430;-66
2022/01/11 06:20:01;;;;;;;;;29.25;28.25;;;;;3.78;71.90;102517.25;5055026;28;45488;-65
2022/01/11 06:22:26;;;;;;;;;26.25;24.00;;;;;3.75;71.50;102513.72;5055654;28;45516;-66
2022/01/11 06:24:52;;;;;;;;;35.50;31.75;;;;;3.74;70.82;102510.19;5056080;28;46132;-68
2022/01/11 06:27:18;;;;;;;;;30.50;23.75;;;;;3.65;71.08;102504.06;5054037;28;45679;-62
2022/01/11 06:29:43;;;;;;;;;35.50;24.50;;;;;3.73;70.99;102523.34;5050996;28;45463;-65
2022/01/11 06:32:09;;;;;;;;;36.75;27.50;;;;;3.71;70.84;102526.00;5054881;28;45404;-63
2022/01/11 06:34:34;;;;;;;;;28.50;25.25;;;;;3.72;71.33;102516.34;5055525;28;45407;-63
2022/01/11 06:37:00;;;;;;;;;32.50;22.75;;;;;3.66;71.50;102518.97;5054309;28;45397;-64
2022/01/11 06:39:26;;;;;;;;;30.00;26.00;;;;;3.59;71.45;102523.31;5037444;28;45437;-65
2022/01/11 06:41:51;;;;;;;;;34.00;24.00;;;;;3.59;71.10;102520.69;5054565;28;45445;-66
2022/01/11 06:44:17;;;;;;;;;37.00;32.00;;;;;3.54;71.78;102523.31;5056004;28;46097;-64
2022/01/11 06:46:42;;;;;;;;;44.00;32.00;;;;;3.44;71.82;102508.34;5036336;28;45464;-66
2022/01/11 06:49:08;;;;;;;;;33.00;31.00;;;;;3.49;72.09;102513.63;5053310;28;45575;-60
2022/01/11 06:51:35;;;;;;;;;32.50;27.00;;;;;3.53;72.01;102518.91;5053792;28;45532;-65
2022/01/11 06:54:00;;;;;;;;;32.75;26.25;;;;;3.44;71.64;102510.09;5053677;28;46236;-66
2022/01/11 06:56:26;;;;;;;;;37.50;30.50;;;;;3.51;71.91;102528.53;5020426;28;45395;-64
2022/01/11 06:58:51;;;;;;;;;33.75;30.00;;;;;3.48;71.93;102536.41;5037478;28;45346;-63
2022/01/11 07:01:17;;;;;;;;;43.25;38.00;;;;;3.42;72.42;102518.00;5055099;28;45534;-63
2022/01/11 07:03:42;;;;;;;;;34.00;28.50;;;;;3.45;72.11;102520.63;5054084;28;46061;-60
2022/01/11 07:06:07;;;;;;;;;34.50;26.00;;;;;3.45;72.57;102528.53;5054600;28;45236;-63
2022/01/11 07:08:33;;;;;;;;;49.25;31.00;;;;;3.49;72.48;102530.28;5055867;28;45653;-63
2022/01/11 07:10:59;;;;;;;;;38.00;30.50;;;;;3.55;72.15;102529.44;5055466;28;45474;-63
2022/01/11 07:13:24;;;;;;;;;38.25;29.50;;;;;3.59;72.52;102535.59;5036701;28;47877;-59
2022/01/11 07:15:50;;;;;;;;;40.75;32.00;;;;;3.61;71.76;102533.84;5055234;28;45682;-59
2022/01/11 07:18:15;;;;;;;;;33.75;29.25;;;;;3.60;72.23;102535.59;5054206;28;45327;-62
2022/01/11 07:20:44;;;;;;;;;36.00;33.00;;;;;3.67;72.28;102539.13;5054490;28;45453;-61
2022/01/11 07:23:11;;;;;;;;;46.50;33.25;;;;;3.66;72.48;102538.25;5054316;28;46465;-60
2022/01/11 07:25:37;;;;;;;;;34.25;27.25;;;;;3.67;71.83;102545.28;5052069;28;45409;-60
2022/01/11 07:28:04;;;;;;;;;37.75;33.00;;;;;3.69;71.90;102542.66;5051928;28;45552;-60
2022/01/11 07:30:30;;;;;;;;;39.50;33.50;;;;;3.70;71.41;102554.94;5053706;28;45550;-63
2022/01/11 07:32:56;;;;;;;;;39.75;32.75;;;;;3.73;71.33;102570.72;5032127;28;47079;-62
2022/01/11 07:35:23;;;;;;;;;41.25;32.00;;;;;3.67;71.25;102586.50;5052721;28;45587;-62
2022/01/11 07:37:50;;;;;;;;;35.25;32.75;;;;;3.61;71.74;102575.94;5053790;28;45470;-66
2022/01/11 07:40:16;;;;;;;;;55.50;38.00;;;;;3.57;71.00;102582.06;5034692;28;47180;-65
2022/01/11 07:42:41;;;;;;;;;41.25;35.25;;;;;3.47;71.32;102583.75;5054066;28;45685;-60
2022/01/11 07:45:07;;;;;;;;;48.75;38.25;;;;;3.50;71.80;102600.44;5054331;28;45686;-62
2022/01/11 07:47:33;;;;;;;;;45.00;33.50;;;;;3.49;71.38;102597.78;5072264;28;45603;-63
2022/01/11 07:49:59;;;;;;;;;43.25;36.75;;;;;3.49;71.29;102579.38;5056760;28;45313;-61
2022/01/11 07:52:25;;;;;;;;;44.50;36.75;;;;;3.50;71.44;102597.81;5025432;28;47658;-61
2022/01/11 07:54:52;;;;;;;;;45.00;38.75;;;;;3.44;71.39;102596.91;5040142;28;45707;-61
2022/01/11 07:57:18;;;;;;;;;50.25;35.50;;;;;3.42;71.50;102596.03;5034822;28;45530;-63
2022/01/11 07:59:43;;;;;;;;;42.50;35.75;;;;;3.38;71.75;102595.09;5057334;28;45530;-65
2022/01/11 08:02:09;;;;;;;;;54.25;43.00;;;;;3.38;71.92;102603.00;5057657;28;45431;-62
2022/01/11 08:04:34;;;;;;;;;52.00;38.00;;;;;3.36;72.24;102607.38;5057568;28;45565;-63
2022/01/11 08:07:01;;;;;;;;;36.50;36.50;;;;;3.32;72.00;102595.09;5056041;28;45987;-62
2022/01/11 08:09:27;;;;;;;;;47.50;36.75;;;;;3.41;71.54;102610.03;5058005;28;45378;-66
2022/01/11 08:11:56;;;;;;;;;50.75;37.00;;;;;3.41;71.93;102610.94;5057521;28;45371;-61
2022/01/11 08:14:22;;;;;;;;;50.00;43.50;;;;;3.44;71.64;102605.69;5054489;28;45427;-61
2022/01/11 08:16:48;;;;;;;;;52.25;39.00;;;;;3.46;71.83;102609.19;5038649;28;45569;-61
2022/01/11 08:19:14;;;;;;;;;47.25;40.25;;;;;3.48;72.14;102617.97;5057763;28;45449;-65
2022/01/11 08:21:39;;;;;;;;;46.75;35.50;;;;;3.45;71.13;102617.06;5039077;28;46812;-61
2022/01/11 08:24:05;;;;;;;;;60.50;43.75;;;;;3.44;71.33;102624.09;5056330;28;45431;-61
2022/01/11 08:26:31;;;;;;;;;53.50;41.50;;;;;3.49;71.63;102640.75;5057574;28;45332;-61
2022/01/11 08:28:56;;;;;;;;;54.50;41.75;;;;;3.51;71.81;102633.75;5057989;28;45346;-61
2022/01/11 08:31:22;;;;;;;;;41.00;34.75;;;;;3.43;71.88;102618.81;5039908;28;45444;-62
2022/01/11 08:33:48;;;;;;;;;52.75;35.75;;;;;3.60;71.57;102629.44;5057321;28;45341;-61
2022/01/11 08:36:13;;;;;;;;;33.25;31.50;;;;;3.66;71.78;102637.38;5057700;28;45298;-63
2022/01/11 08:38:39;;;;;;;;;47.00;37.75;;;;;3.71;71.48;102640.91;5057789;28;45582;-62
2022/01/11 08:41:05;;;;;;;;;49.75;39.50;;;;;3.71;71.51;102635.63;5037197;28;45478;-63
2022/01/11 08:43:30;;;;;;;;;45.50;39.50;;;;;3.80;71.47;102647.09;5048603;28;45245;-62
2022/01/11 08:45:56;;;;;;;;;41.00;36.25;;;;;3.82;70.92;102645.34;5057544;28;45594;-60
2022/01/11 08:48:22;;;;;;;;;47.00;36.25;;;;;3.79;70.47;102649.72;5057392;28;45509;-62
2022/01/11 08:50:52;;;;;;;;;61.25;41.50;;;;;3.80;70.81;102640.94;5037828;28;45510;-63
2022/01/11 08:53:18;;;;;;;;;45.75;33.25;;;;;3.86;70.19;102640.97;5036284;28;45285;-63
2022/01/11 08:55:44;;;;;;;;;53.25;34.75;;;;;3.88;70.61;102633.06;5056036;28;45423;-62
2022/01/11 08:58:09;;;;;;;;;47.00;42.50;;;;;3.85;70.46;102634.81;5055735;28;45511;-62
2022/01/11 09:00:35;;;;;;;;;59.00;45.50;;;;;3.82;70.64;102632.19;5056206;28;45353;-62
2022/01/11 09:03:00;;;;;;;;;59.50;45.00;;;;;3.81;70.71;102638.31;5057135;28;45303;-63
2022/01/11 09:05:26;;;;;;;;;57.50;45.00;;;;;3.77;70.81;102641.78;5057081;28;45322;-63
2022/01/11 09:07:52;;;;;;;;;55.00;44.75;;;;;3.77;70.93;102644.41;5057589;28;45333;-62
2022/01/11 09:10:18;;;;;;;;;49.00;36.25;;;;;3.78;70.91;102638.31;5056441;28;46346;-63
2022/01/11 09:12:45;;;;;;;;;54.75;46.75;;;;;3.83;70.90;102647.09;5038301;28;45537;-60
2022/01/11 09:15:11;;;;;;;;;46.00;38.25;;;;;3.85;71.59;102649.72;5056873;28;45515;-60
2022/01/11 09:17:37;;;;;;;;;57.25;45.50;;;;;3.90;70.80;102650.63;5057205;28;45658;-60
2022/01/11 09:20:05;;;;;;;;;50.00;37.50;;;;;3.94;70.54;102660.31;5056625;28;45539;-64
2022/01/11 09:22:31;;;;;;;;;51.00;41.25;;;;;3.91;70.38;102649.78;5055660;28;45327;-62
2022/01/11 09:24:57;;;;;;;;;59.50;45.75;;;;;3.88;70.35;102659.38;5056366;28;45525;-61
2022/01/11 09:27:22;;;;;;;;;54.50;46.00;;;;;3.87;70.42;102660.25;5057216;28;45459;-62
2022/01/11 09:29:48;;;;;;;;;63.50;47.25;;;;;3.87;70.65;102666.41;5057006;28;46151;-64
2022/01/11 09:32:14;;;;;;;;;46.00;42.75;;;;;3.88;70.62;102665.53;5056695;28;45352;-62
2022/01/11 09:34:41;;;;;;;;;57.00;44.00;;;;;3.87;70.67;102663.78;5057181;28;45743;-62
2022/01/11 09:37:08;;;;;;;;;62.50;44.00;;;;;3.78;70.37;102655.84;5057225;28;45533;-61
2022/01/11 09:39:36;;;;;;;;;59.25;51.00;;;;;3.79;70.75;102679.53;5057165;28;45426;-61
2022/01/11 09:42:05;;;;;;;;;63.75;46.25;;;;;3.82;70.61;102671.66;5057246;28;45599;-62
2022/01/11 09:44:32;;;;;;;;;51.25;46.00;;;;;3.82;70.83;102657.63;5056495;28;45403;-62
2022/01/11 09:46:58;;;;;;;;;60.00;49.50;;;;;3.87;70.19;102679.56;5055440;28;45220;-62
2022/01/11 09:49:24;;;;;;;;;63.25;48.25;;;;;3.92;71.27;102674.34;5056345;28;45687;-63
2022/01/11 09:51:51;;;;;;;;;50.00;44.75;;;;;3.88;70.57;102670.78;5056283;28;45345;-61
2022/01/11 09:54:19;;;;;;;;;60.25;46.25;;;;;3.89;70.92;102672.56;5038443;28;45336;-62
2022/01/11 09:56:45;;;;;;;;;68.00;48.75;;;;;3.98;70.42;102682.25;5038157;28;45517;-60
2022/01/11 09:59:10;;;;;;;;;62.00;46.50;;;;;3.99;70.50;102679.63;5037815;28;47886;-61
2022/01/11 10:01:36;;;;;;;;;61.50;45.00;;;;;4.00;70.09;102676.13;5037809;28;45376;-64
2022/01/11 10:04:05;;;;;;;;;69.00;47.00;;;;;4.04;70.09;102687.56;5054162;28;45454;-62
2022/01/11 10:06:32;;;;;;;;;55.00;44.00;;;;;3.84;69.93;102674.28;5056160;28;45522;-61
2022/01/11 10:09:16;;;;;;;;;53.25;42.50;;;;;4.00;70.20;102696.31;5055838;28;45511;-63
2022/01/11 10:11:53;;;;;;;;;63.25;47.75;;;;;4.08;70.38;102694.59;5056227;28;45342;-61
2022/01/11 10:14:21;;;;;;;;;54.00;45.25;;;;;4.18;69.41;102690.25;5037753;28;45445;-63
2022/01/11 10:16:48;;;;;;;;;60.25;51.75;;;;;4.20;69.99;102699.03;5056162;28;45575;-61
2022/01/11 10:19:28;;;;;;;;;63.25;47.50;;;;;4.12;69.20;102686.69;5055763;28;45410;-60
2022/01/11 10:21:56;;;;;;;;;65.50;50.00;;;;;4.18;69.87;102696.41;5038349;28;45518;-62
2022/01/11 10:24:54;;;;;;;;;65.25;50.75;;;;;4.18;69.73;102706.94;5056531;28;45394;-63
2022/01/11 10:27:27;;;;;;;;;54.50;45.50;;;;;4.19;69.39;102705.19;5023012;28;45444;-62
2022/01/11 10:29:54;;;;;;;;;60.75;48.00;;;;;4.14;69.33;102706.00;5050618;28;46253;-63
2022/01/11 10:32:21;;;;;;;;;49.50;42.25;;;;;4.11;68.95;102711.28;5048263;28;45976;-61
2022/01/11 10:34:50;;;;;;;;;59.00;46.25;;;;;4.08;69.91;102706.00;5056025;28;45411;-60
2022/01/11 10:37:38;;;;;;;;;49.50;41.25;;;;;4.09;69.74;102713.03;5056123;28;45580;-62
2022/01/11 10:40:19;;;;;;;;;62.75;45.75;;;;;4.15;70.23;102717.44;5037475;28;47749;-61
2022/01/11 10:42:48;;;;;;;;;58.00;46.50;;;;;4.14;69.63;102715.66;5037386;28;45837;-63
2022/01/11 10:45:20;;;;;;;;;54.00;39.50;;;;;4.18;69.89;102716.59;5055748;28;45349;-63
2022/01/11 10:47:51;;;;;;;;;51.25;43.25;;;;;4.20;69.57;102720.09;5020086;28;45323;-62
2022/01/11 10:50:27;;;;;;;;;58.00;43.25;;;;;4.17;69.80;102715.72;5037494;28;46099;-64
2022/01/11 10:52:53;;;;;;;;;49.25;42.75;;;;;4.19;69.88;102718.34;5056184;28;45485;-62
2022/01/11 10:55:21;;;;;;;;;48.75;40.25;;;;;4.18;69.68;102706.06;5055980;28;45339;-63
2022/01/11 10:57:59;;;;;;;;;57.00;44.00;;;;;4.24;69.86;102700.78;5038036;28;45541;-62
2022/01/11 11:00:28;;;;;;;;;61.00;41.50;;;;;4.36;69.66;102714.00;5056036;28;45287;-63
2022/01/11 11:02:57;;;;;;;;;49.00;41.00;;;;;4.34;69.35;102713.13;5044829;28;45465;-63
2022/01/11 11:05:23;;;;;;;;;60.50;45.25;;;;;4.34;69.36;102702.59;5043026;28;45249;-62
2022/01/11 11:07:58;;;;;;;;;53.25;44.50;;;;;4.43;69.34;102707.91;5055524;28;45403;-61
2022/01/11 11:10:33;;;;;;;;;59.75;47.00;;;;;4.46;69.25;102710.53;5055387;28;45321;-62
2022/01/11 11:13:00;;;;;;;;;46.75;41.75;;;;;4.48;68.20;102692.97;5034707;28;45375;-63
2022/01/11 11:15:34;;;;;;;;;49.25;38.75;;;;;4.51;68.16;102695.63;5017565;28;45332;-63
2022/01/11 11:18:02;;;;;;;;;52.75;45.50;;;;;4.64;67.98;102707.94;5035832;28;45360;-64
2022/01/11 11:20:28;;;;;;;;;53.00;43.25;;;;;4.70;68.35;102713.25;5040575;28;46168;-63